Upstream stations:
Downstream station:
SHEF ID: BENT2 S Wichita Rv nr Benjamin, TX
STATION TYPE:
Regulating: Stage = 12.00, Flow = 373
PRECIP STAGE RIV-FLOW WTR-TEMP CONDUCT BAT-LOAD
in ft cfs F umho/cm volt
Ccp-Rev Ccp-Rev Ccp-Rev Ccp-Rev Ccp-Rev Ccp-Rev
(US/Central)
07/02 00:00 0.00 7.46 0 83.37 0 12.65
07/02 01:00 0.00 7.44 0 81.72 0 12.65
07/02 02:00 0.00 7.44 0 77.14 0 12.65
07/02 03:00 0.00 7.42 0 76.15 0 12.57
07/02 04:00 0.00 7.43 0 74.50 0 12.57
07/02 05:00 0.00 7.42 0 73.92 0 12.57
07/02 06:00 0.00 7.43 0 72.25 0 12.57
07/02 07:00 0.00 7.43 0 72.23 0 12.49
07/02 08:00 0.00 7.44 0 81.64 0 12.73
07/02 09:00 0.00 7.43 0 88.84 0 13.13
07/02 10:00 0.00 7.45 0 94.21 0 13.29
07/02 11:00 0.00 7.46 0 98.74 0 13.29
07/02 12:00 0.00 7.47 0 103.10 0 13.29
07/02 13:00 0.00 7.47 0 108.01 0 13.37
07/02 14:00 0.00 7.47 0 97.90 0 13.13
07/02 15:00 0.00 7.47 0 98.35 0 13.21
07/02 16:00 0.00 7.47 0 97.93 0 13.13
07/02 17:00 0.00 7.45 0 98.62 0 13.05
07/02 18:00 0.00 7.45 0 96.35 0 13.05
07/02 19:00 0.00 7.44 0 95.85 0 12.97
07/02 20:00 0.00 7.43 0 100.49 0 12.73
07/02 21:00 0.00 7.43 0 91.22 0 12.65
07/02 22:00 0.00 7.42 0 89.33 0 12.65
07/02 23:00 ---- ---- ---- ---- ---- ----